Time;durP1;ratioP1;P1;durP2;ratioP2;P2;SDS_P1;SDS_P2;PMS_P1;PMS_P2;Temp;Humidity;BMP_temperature;BMP_pressure;BME280_temperature;BME280_humidity;BME280_pressure;Samples;Min_cycle;Max_cycle;Signal;HPM_P1;HPM_P2
2022/03/30 00:00:44;;;;;;;;;;;;;;;10.63;57.42;100175.81;5030145;28;20016;-78
2022/03/30 00:03:10;;;;;;;;;;;;;;;10.65;57.60;100171.41;5022117;28;20292;-78
2022/03/30 00:05:36;;;;;;;;;;;;;;;10.74;57.94;100168.53;5029831;28;19925;-78
2022/03/30 00:08:02;;;;;;;;;;;;;;;10.69;59.32;100167.81;5025752;28;20368;-78
2022/03/30 00:10:27;;;;;;;;;;;;;;;10.61;59.03;100164.63;5026809;28;19933;-79
2022/03/30 00:12:54;;;;;;;;;;;;;;;10.66;58.24;100157.53;5035792;28;19947;-78
2022/03/30 00:15:20;;;;;;;;;;;;;;;10.82;57.57;100157.00;5026385;28;19921;-78
2022/03/30 00:17:45;;;;;;;;;;;;;;;10.69;57.75;100150.50;5023918;28;19927;-78
2022/03/30 00:20:11;;;;;;;;;;;;;;;10.72;56.96;100147.81;5025988;28;20297;-78
2022/03/30 00:22:38;;;;;;;;;;;;;;;10.74;56.79;100151.19;5017713;28;19921;-79
2022/03/30 00:25:05;;;;;;;;;;;;;;;10.74;56.96;100146.00;5040393;28;19924;-79
2022/03/30 00:27:30;;;;;;;;;;;;;;;10.68;58.08;100143.59;5031790;28;20263;-78
2022/03/30 00:29:55;;;;;;;;;;;;;;;10.70;58.17;100138.38;5023293;28;19929;-78
2022/03/30 00:32:20;;;;;;;;;;;;;;;10.79;56.84;100135.47;5026528;28;19975;-76
2022/03/30 00:34:46;;;;;;;;;;;;;;;10.64;56.94;100133.38;5024827;28;19956;-77
2022/03/30 00:37:11;;;;;;;;;;;;;;;10.73;56.64;100133.91;5025001;28;20444;-77
2022/03/30 00:39:36;;;;;;;;;;;;;;;10.83;54.75;100124.94;5028453;28;20206;-77
2022/03/30 00:42:03;;;;;;;;;;;;;;;10.81;54.81;100118.94;5025543;28;19957;-77
2022/03/30 00:44:28;;;;;;;;;;;;;;;10.70;56.87;100123.59;5026012;28;19917;-77
2022/03/30 00:46:53;;;;;;;;;;;;;;;10.85;55.02;100120.53;5031511;28;19927;-77
2022/03/30 00:49:19;;;;;;;;;;;;;;;10.68;56.34;100124.56;5026669;28;20015;-77
2022/03/30 00:51:44;;;;;;;;;;;;;;;10.68;55.67;100119.38;5040149;28;19933;-78
2022/03/30 00:54:10;;;;;;;;;;;;;;;10.58;56.46;100117.97;5034464;28;20499;-78
2022/03/30 00:56:36;;;;;;;;;;;;;;;10.57;57.00;100122.31;5024021;28;19925;-78
2022/03/30 00:59:02;;;;;;;;;;;;;;;10.65;56.31;100117.72;5033873;28;19917;-76
2022/03/30 01:01:27;;;;;;;;;;;;;;;10.62;56.43;100119.56;5032449;28;20083;-76
2022/03/30 01:03:53;;;;;;;;;;;;;;;10.66;55.02;100118.56;5027377;28;20024;-76
2022/03/30 01:06:18;;;;;;;;;;;;;;;10.67;54.70;100115.91;5036420;28;19967;-76
2022/03/30 01:08:45;;;;;;;;;;;;;;;10.65;56.44;100117.72;5026836;28;19924;-78
2022/03/30 01:11:11;;;;;;;;;;;;;;;10.58;54.67;100117.97;5045101;28;19940;-76
2022/03/30 01:13:37;;;;;;;;;;;;;;;10.63;56.66;100113.47;5026538;28;19925;-78
2022/03/30 01:16:02;;;;;;;;;;;;;;;10.59;56.13;100115.31;5026281;28;19929;-76
2022/03/30 01:18:27;;;;;;;;;;;;;;;10.58;57.92;100113.63;5023339;28;19922;-77
2022/03/30 01:20:53;;;;;;;;;;;;;;;10.56;58.99;100107.63;5025669;28;20378;-78
2022/03/30 01:23:18;;;;;;;;;;;;;;;10.57;60.36;100105.88;5031024;28;20298;-78
2022/03/30 01:25:44;;;;;;;;;;;;;;;10.45;61.77;100107.09;5028589;28;20011;-78
2022/03/30 01:28:09;;;;;;;;;;;;;;;10.36;62.51;100105.66;5025693;28;20381;-78
2022/03/30 01:33:18;;;;;;;;;;;;;;;10.50;58.60;100097.41;5029443;28;20473;-78
2022/03/30 01:35:44;;;;;;;;;;;;;;;10.54;61.16;100096.44;5035339;28;19917;-78
2022/03/30 01:38:09;;;;;;;;;;;;;;;10.47;60.82;100098.38;5029315;28;20285;-77
2022/03/30 01:40:35;;;;;;;;;;;;;;;10.40;61.74;100085.63;5035929;28;19921;-77
2022/03/30 01:43:00;;;;;;;;;;;;;;;10.45;61.42;100087.19;5028610;28;19972;-77
2022/03/30 01:45:26;;;;;;;;;;;;;;;10.38;62.72;100079.63;5046175;28;19929;-77
2022/03/30 01:47:54;;;;;;;;;;;;;;;10.35;63.58;100083.16;5026389;28;19921;-77
2022/03/30 01:50:19;;;;;;;;;;;;;;;10.33;64.02;100087.56;5031243;28;19921;-77
2022/03/30 01:52:45;;;;;;;;;;;;;;;10.38;63.52;100080.47;5035721;28;19975;-77
2022/03/30 01:55:11;;;;;;;;;;;;;;;10.41;63.75;100072.59;5024391;28;20345;-77
2022/03/30 01:57:36;;;;;;;;;;;;;;;10.38;64.13;100075.28;5018872;28;19925;-78
2022/03/30 02:00:04;;;;;;;;;;;;;;;10.39;64.46;100068.34;5035641;28;19928;-78
2022/03/30 02:02:29;;;;;;;;;;;;;;;10.49;63.28;100061.97;5026293;28;20354;-78
2022/03/30 02:04:54;;;;;;;;;;;;;;;10.47;63.62;100058.56;5031273;28;19928;-78
2022/03/30 02:07:20;;;;;;;;;;;;;;;10.50;62.85;100057.59;5025114;28;20003;-78
2022/03/30 02:09:45;;;;;;;;;;;;;;;10.33;63.86;100059.00;5029503;28;19932;-78
2022/03/30 02:12:11;;;;;;;;;;;;;;;10.26;63.73;100057.50;5029539;28;19948;-76
2022/03/30 02:14:36;;;;;;;;;;;;;;;10.43;63.23;100055.22;5029227;28;19918;-77
2022/03/30 02:17:01;;;;;;;;;;;;;;;10.39;63.74;100056.22;5028025;28;20028;-77
2022/03/30 02:19:27;;;;;;;;;;;;;;;10.31;63.30;100062.56;5035792;28;19929;-76
2022/03/30 02:21:52;;;;;;;;;;;;;;;10.23;64.09;100054.97;5024164;28;20377;-75
2022/03/30 02:24:18;;;;;;;;;;;;;;;10.22;64.68;100061.09;5034199;28;19959;-76
2022/03/30 02:26:43;;;;;;;;;;;;;;;10.24;64.83;100056.69;5033125;28;19921;-78
2022/03/30 02:29:08;;;;;;;;;;;;;;;10.21;62.73;100045.56;5027684;28;19929;-76
2022/03/30 02:31:34;;;;;;;;;;;;;;;10.28;62.45;100050.53;5027333;28;20011;-76
2022/03/30 02:34:00;;;;;;;;;;;;;;;10.35;62.38;100041.63;5031448;28;20301;-76
2022/03/30 02:36:25;;;;;;;;;;;;;;;10.37;62.71;100041.59;5031065;28;19924;-76
2022/03/30 02:38:50;;;;;;;;;;;;;;;10.21;63.39;100036.03;5035365;28;19917;-76
2022/03/30 02:41:16;;;;;;;;;;;;;;;10.21;64.37;100046.41;5022244;28;19928;-76
2022/03/30 02:43:41;;;;;;;;;;;;;;;10.18;64.27;100041.31;5030244;28;19928;-75
2022/03/30 02:46:07;;;;;;;;;;;;;;;10.12;64.12;100041.50;5031378;28;20845;-78
2022/03/30 02:48:33;;;;;;;;;;;;;;;10.15;64.21;100037.97;5022546;28;20000;-78
2022/03/30 02:51:03;;;;;;;;;;;;;;;10.11;64.88;100034.59;5027875;28;19925;-78
2022/03/30 02:53:29;;;;;;;;;;;;;;;10.39;63.50;100032.00;5045618;28;20011;-78
2022/03/30 02:55:54;;;;;;;;;;;;;;;10.38;63.67;100038.09;5031867;28;20016;-78
2022/03/30 02:58:19;;;;;;;;;;;;;;;10.36;64.26;100032.94;5025948;28;19917;-77
2022/03/30 03:00:45;;;;;;;;;;;;;;;10.32;63.18;100028.75;5037416;28;19927;-77
2022/03/30 03:03:10;;;;;;;;;;;;;;;10.24;63.70;100025.53;5027391;28;19928;-77
2022/03/30 03:05:36;;;;;;;;;;;;;;;10.20;63.88;100034.31;5031148;28;19962;-77
2022/03/30 03:08:03;;;;;;;;;;;;;;;10.23;63.81;100028.19;5026646;28;19925;-77
2022/03/30 03:10:29;;;;;;;;;;;;;;;10.21;63.81;100024.78;5025668;28;19935;-78
2022/03/30 03:12:55;;;;;;;;;;;;;;;10.35;62.81;100027.78;5043218;28;19921;-78
2022/03/30 03:15:20;;;;;;;;;;;;;;;10.16;62.40;100031.88;5030847;28;19929;-76
2022/03/30 03:17:46;;;;;;;;;;;;;;;10.27;62.85;100022.84;5028701;28;19917;-76
2022/03/30 03:20:11;;;;;;;;;;;;;;;10.15;63.39;100024.97;5025788;28;19920;-77
2022/03/30 03:22:37;;;;;;;;;;;;;;;10.11;64.65;100020.78;5029972;28;19967;-78
2022/03/30 03:25:03;;;;;;;;;;;;;;;10.35;63.62;100026.06;5028153;28;19939;-78
2022/03/30 03:27:29;;;;;;;;;;;;;;;10.33;63.59;100020.06;5028534;28;19924;-75
2022/03/30 03:29:54;;;;;;;;;;;;;;;10.18;63.89;100024.88;5053944;28;19925;-78
2022/03/30 03:32:19;;;;;;;;;;;;;;;10.19;64.05;100017.06;5025585;28;19940;-77
2022/03/30 03:34:45;;;;;;;;;;;;;;;10.14;64.20;100024.13;5036028;28;19929;-77
2022/03/30 03:37:11;;;;;;;;;;;;;;;10.22;64.27;100014.38;5026977;28;19928;-77
2022/03/30 03:39:36;;;;;;;;;;;;;;;10.23;64.32;100020.38;5023830;28;20343;-77
2022/03/30 03:42:02;;;;;;;;;;;;;;;10.15;64.10;100012.84;5028397;28;19947;-76
2022/03/30 03:44:27;;;;;;;;;;;;;;;10.16;64.68;100016.31;5031642;28;19952;-76
2022/03/30 03:46:54;;;;;;;;;;;;;;;10.19;64.90;100000.63;5026393;28;19929;-77
2022/03/30 03:49:19;;;;;;;;;;;;;;;10.26;64.54;100012.50;5028541;28;20603;-78
2022/03/30 03:51:45;;;;;;;;;;;;;;;10.31;64.85;100003.69;5031172;28;19927;-78
2022/03/30 03:54:10;;;;;;;;;;;;;;;10.08;64.84;100010.50;5030830;28;20024;-78
2022/03/30 03:56:35;;;;;;;;;;;;;;;10.19;64.98;100008.44;5025938;28;19917;-78
2022/03/30 03:59:01;;;;;;;;;;;;;;;10.21;64.28;100006.63;5034491;28;19986;-78
2022/03/30 04:01:27;;;;;;;;;;;;;;;10.28;64.21;100006.41;5025676;28;19935;-78
2022/03/30 04:03:53;;;;;;;;;;;;;;;10.12;65.08;99999.97;5025526;28;19921;-77
2022/03/30 04:06:18;;;;;;;;;;;;;;;9.97;64.94;100000.44;5024716;28;19925;-76
2022/03/30 04:08:43;;;;;;;;;;;;;;;10.01;64.90;99991.69;5025155;28;19917;-76
2022/03/30 04:11:09;;;;;;;;;;;;;;;9.95;65.50;99996.22;5028003;28;19925;-76
2022/03/30 04:13:36;;;;;;;;;;;;;;;10.00;64.89;100007.28;5024484;28;19960;-77
2022/03/30 04:16:01;;;;;;;;;;;;;;;9.93;65.71;99998.00;5021525;28;20002;-76
2022/03/30 04:18:26;;;;;;;;;;;;;;;9.79;66.63;100004.41;5033520;28;19921;-77
2022/03/30 04:20:52;;;;;;;;;;;;;;;9.93;65.05;99991.06;5023566;28;19959;-77
2022/03/30 04:23:17;;;;;;;;;;;;;;;10.04;64.94;99977.75;5029108;28;20012;-78
2022/03/30 04:25:42;;;;;;;;;;;;;;;10.14;64.82;99992.13;5020622;28;19929;-78
2022/03/30 04:28:08;;;;;;;;;;;;;;;10.10;64.95;99987.94;5020344;28;19953;-78
2022/03/30 04:30:33;;;;;;;;;;;;;;;10.13;64.77;99975.72;5030511;28;20329;-78
2022/03/30 04:33:00;;;;;;;;;;;;;;;9.96;65.23;99972.78;5024394;28;21646;-78
2022/03/30 04:35:30;;;;;;;;;;;;;;;9.95;65.43;99967.66;5029612;28;19920;-78
2022/03/30 04:37:55;;;;;;;;;;;;;;;9.97;65.76;99978.84;5023902;28;20019;-78
2022/03/30 04:40:22;;;;;;;;;;;;;;;9.99;64.91;99969.28;5027902;28;20386;-78
2022/03/30 04:42:47;;;;;;;;;;;;;;;10.01;65.01;99976.13;5028639;28;19923;-78
2022/03/30 04:45:13;;;;;;;;;;;;;;;9.94;65.76;99969.41;5031743;28;20024;-78
2022/03/30 04:47:38;;;;;;;;;;;;;;;9.99;65.15;99967.50;5020310;28;20271;-78
2022/03/30 04:50:04;;;;;;;;;;;;;;;9.97;65.02;99960.69;5024785;28;19924;-78
2022/03/30 04:52:31;;;;;;;;;;;;;;;9.89;65.59;99958.31;5026313;28;20027;-78
2022/03/30 04:54:57;;;;;;;;;;;;;;;9.95;64.91;99965.94;5025997;28;19960;-75
2022/03/30 04:57:22;;;;;;;;;;;;;;;9.97;64.17;99958.94;5021973;28;19964;-75
2022/03/30 04:59:48;;;;;;;;;;;;;;;9.98;64.17;99964.97;5025923;28;19924;-76
2022/03/30 05:02:13;;;;;;;;;;;;;;;10.11;63.15;99958.50;5020017;28;19921;-75
2022/03/30 05:04:38;;;;;;;;;;;;;;;9.82;64.49;99962.81;5025617;28;20435;-75
2022/03/30 05:07:03;;;;;;;;;;;;;;;9.72;64.46;99970.94;5022648;28;20390;-78
2022/03/30 05:09:29;;;;;;;;;;;;;;;9.83;64.66;99964.53;5024472;28;20005;-78
2022/03/30 05:11:54;;;;;;;;;;;;;;;9.86;64.42;99974.81;5015845;28;19921;-78
2022/03/30 05:14:19;;;;;;;;;;;;;;;9.79;64.80;99982.81;5021411;28;20041;-78
2022/03/30 05:16:45;;;;;;;;;;;;;;;10.02;63.85;99976.97;5027468;28;19921;-78
2022/03/30 05:19:10;;;;;;;;;;;;;;;9.79;64.74;99983.66;5022814;28;19928;-78
2022/03/30 05:21:35;;;;;;;;;;;;;;;9.62;63.76;99985.06;5025709;28;19952;-78
2022/03/30 05:24:01;;;;;;;;;;;;;;;9.73;63.23;99976.06;5026697;28;19925;-78
2022/03/30 05:26:28;;;;;;;;;;;;;;;9.78;63.95;99973.34;5028895;28;19968;-77
2022/03/30 05:28:53;;;;;;;;;;;;;;;9.79;63.95;99972.44;5022432;28;20313;-77
2022/03/30 05:31:19;;;;;;;;;;;;;;;9.78;64.58;99975.94;5023118;28;19925;-78
2022/03/30 05:33:44;;;;;;;;;;;;;;;9.91;62.13;99964.31;5026450;28;20380;-78
2022/03/30 05:36:09;;;;;;;;;;;;;;;9.89;62.10;99968.69;5045456;28;19929;-78
2022/03/30 05:38:38;;;;;;;;;;;;;;;9.83;61.76;99976.66;5043746;28;19932;-79
2022/03/30 05:41:03;;;;;;;;;;;;;;;9.84;61.75;99974.00;5022594;28;19999;-81
2022/03/30 05:43:29;;;;;;;;;;;;;;;9.88;63.38;99977.34;5028004;28;20008;-80
2022/03/30 05:45:54;;;;;;;;;;;;;;;9.92;62.13;99979.00;5042148;28;20332;-78
2022/03/30 05:48:19;;;;;;;;;;;;;;;9.80;63.65;99981.94;5026444;28;20424;-77
2022/03/30 05:50:45;;;;;;;;;;;;;;;9.85;62.84;99978.28;5025603;28;20389;-77
2022/03/30 05:53:10;;;;;;;;;;;;;;;9.62;64.13;99979.88;5030557;28;20353;-77
2022/03/30 05:55:36;;;;;;;;;;;;;;;9.80;62.35;99981.94;5029875;28;19921;-77
2022/03/30 05:58:03;;;;;;;;;;;;;;;9.74;63.35;99977.78;5027399;28;20380;-77
2022/03/30 06:00:29;;;;;;;;;;;;;;;9.61;63.26;99980.75;5031093;28;20373;-80
2022/03/30 06:02:54;;;;;;;;;;;;;;;9.89;62.65;99981.66;5028675;28;19921;-77
2022/03/30 06:05:20;;;;;;;;;;;;;;;9.79;63.64;99978.47;5022415;28;19925;-78
2022/03/30 06:07:45;;;;;;;;;;;;;;;9.76;62.81;99977.72;5023859;28;20372;-77
2022/03/30 06:10:10;;;;;;;;;;;;;;;9.77;63.62;99979.44;5031999;28;19932;-77
2022/03/30 06:12:36;;;;;;;;;;;;;;;9.78;63.24;99976.78;5027569;28;19929;-76
2022/03/30 06:15:01;;;;;;;;;;;;;;;9.68;63.73;99972.78;5026630;28;19921;-76
2022/03/30 06:17:27;;;;;;;;;;;;;;;9.75;64.40;99978.63;5027293;28;19920;-76
2022/03/30 06:19:53;;;;;;;;;;;;;;;9.77;63.09;99982.88;5029349;28;19925;-76
2022/03/30 06:22:18;;;;;;;;;;;;;;;9.79;63.86;99978.47;5028079;28;19931;-79
2022/03/30 06:24:44;;;;;;;;;;;;;;;9.81;63.55;99979.28;5028208;28;20424;-80
2022/03/30 06:27:10;;;;;;;;;;;;;;;9.80;63.97;99985.38;5023921;28;20481;-79
2022/03/30 06:29:36;;;;;;;;;;;;;;;9.78;63.77;99986.31;5029650;28;19917;-79
2022/03/30 06:32:02;;;;;;;;;;;;;;;9.89;63.80;99992.03;5026664;28;19928;-79
2022/03/30 06:34:28;;;;;;;;;;;;;;;9.95;63.66;99991.00;5032982;28;19921;-79
2022/03/30 06:36:53;;;;;;;;;;;;;;;9.91;64.70;99990.25;5034106;28;19960;-79
2022/03/30 06:39:18;;;;;;;;;;;;;;;9.92;64.55;99991.09;5033556;28;19960;-79
2022/03/30 06:41:44;;;;;;;;;;;;;;;9.99;64.02;99996.03;5026385;28;19983;-79
2022/03/30 06:44:10;;;;;;;;;;;;;;;9.86;65.37;99990.38;5032634;28;19932;-79
2022/03/30 06:46:38;;;;;;;;;;;;;;;9.85;63.69;99986.06;5031122;28;19925;-79
2022/03/30 06:49:07;;;;;;;;;;;;;;;10.06;62.88;99983.75;5024153;28;19929;-79
2022/03/30 06:51:33;;;;;;;;;;;;;;;10.05;62.56;99976.88;5030306;28;19957;-79
2022/03/30 06:53:59;;;;;;;;;;;;;;;10.03;62.50;99982.09;5037809;28;19925;-79
2022/03/30 06:56:25;;;;;;;;;;;;;;;10.03;62.35;99979.50;5027383;28;19928;-79
2022/03/30 06:58:51;;;;;;;;;;;;;;;10.04;62.73;99982.94;5038982;28;19927;-79
2022/03/30 07:01:16;;;;;;;;;;;;;;;9.86;63.50;99992.13;5011410;28;20397;-79
2022/03/30 07:03:42;;;;;;;;;;;;;;;9.98;63.48;99981.41;5016672;28;19932;-79
2022/03/30 07:06:07;;;;;;;;;;;;;;;9.97;61.53;99977.09;5011673;28;19929;-79
2022/03/30 07:11:17;;;;;;;;;;;;;;;9.85;63.51;99993.00;5026368;28;19971;-79
2022/03/30 07:13:43;;;;;;;;;;;;;;;10.00;61.05;99984.78;5034517;28;19949;-79
2022/03/30 07:16:08;;;;;;;;;;;;;;;9.80;61.95;99987.13;5031033;28;20302;-79
2022/03/30 07:18:33;;;;;;;;;;;;;;;9.92;61.43;99988.53;5034172;28;19929;-79
2022/03/30 07:20:59;;;;;;;;;;;;;;;10.04;61.57;99982.94;5033134;28;20426;-79
2022/03/30 07:23:24;;;;;;;;;;;;;;;10.04;61.47;99975.16;5023619;28;20007;-79
2022/03/30 07:25:50;;;;;;;;;;;;;;;10.22;62.20;99977.19;5028473;28;21177;-79
2022/03/30 07:28:16;;;;;;;;;;;;;;;10.11;62.45;99976.66;5031311;28;19928;-79
2022/03/30 07:30:43;;;;;;;;;;;;;;;10.01;62.00;99975.25;5020955;28;20424;-79
2022/03/30 07:33:08;;;;;;;;;;;;;;;10.19;60.67;99972.94;5033003;28;20633;-79
2022/03/30 07:35:34;;;;;;;;;;;;;;;10.26;59.37;99971.84;5031523;28;19920;-79
2022/03/30 07:38:00;;;;;;;;;;;;;;;10.27;59.90;99973.53;5028946;28;19913;-79
2022/03/30 07:40:26;;;;;;;;;;;;;;;10.26;59.73;99970.97;5024793;28;19938;-79
2022/03/30 07:42:52;;;;;;;;;;;;;;;10.05;58.30;99966.50;5029438;28;19935;-79
2022/03/30 07:45:18;;;;;;;;;;;;;;;10.19;58.14;99965.16;5027148;28;19922;-79
2022/03/30 07:47:43;;;;;;;;;;;;;;;10.24;59.63;99971.03;5035011;28;19921;-79
2022/03/30 07:50:10;;;;;;;;;;;;;;;10.26;59.26;99966.63;5024064;28;19929;-79
2022/03/30 07:52:36;;;;;;;;;;;;;;;10.24;58.38;99963.25;5024536;28;20500;-79
2022/03/30 07:55:02;;;;;;;;;;;;;;;10.19;58.05;99957.38;5029534;28;19929;-79
2022/03/30 07:57:28;;;;;;;;;;;;;;;10.38;58.17;99963.66;5030763;28;19929;-79
2022/03/30 07:59:54;;;;;;;;;;;;;;;10.17;56.70;99960.88;5036786;28;19921;-81
2022/03/30 08:02:19;;;;;;;;;;;;;;;10.20;56.99;99963.38;5026855;28;19917;-80
2022/03/30 08:04:44;;;;;;;;;;;;;;;10.19;57.29;99959.97;5041194;28;19953;-79
2022/03/30 08:07:10;;;;;;;;;;;;;;;10.33;58.53;99970.75;5038510;28;20690;-79
2022/03/30 08:09:35;;;;;;;;;;;;;;;10.36;56.52;99956.81;5022869;28;19932;-79
2022/03/30 08:12:00;;;;;;;;;;;;;;;10.37;57.43;99961.94;5032186;28;20368;-79
2022/03/30 08:14:26;;;;;;;;;;;;;;;10.35;57.44;99968.94;5025367;28;19920;-79
2022/03/30 08:16:51;;;;;;;;;;;;;;;10.37;55.50;99954.16;5028334;28;19929;-79
2022/03/30 08:19:17;;;;;;;;;;;;;;;10.40;58.73;99963.59;5026800;28;20436;-79
2022/03/30 08:24:27;;;;;;;;;;;;;;;10.24;58.86;99955.47;5027959;28;19928;-79
2022/03/30 08:26:52;;;;;;;;;;;;;;;10.24;57.13;99965.00;5031386;28;19922;-79
2022/03/30 08:29:18;;;;;;;;;;;;;;;10.39;57.75;99960.16;5035045;28;19970;-79
2022/03/30 08:31:43;;;;;;;;;;;;;;;10.37;57.73;99955.91;5021364;28;19933;-80
2022/03/30 08:34:09;;;;;;;;;;;;;;;10.32;58.90;99955.19;5055621;28;19921;-80
2022/03/30 08:36:34;;;;;;;;;;;;;;;10.18;60.00;99950.47;5031117;28;20457;-76
2022/03/30 08:39:03;;;;;;;;;;;;;;;10.34;58.40;99950.84;5041543;28;19971;-76
2022/03/30 08:41:29;;;;;;;;;;;;;;;10.20;56.68;99951.25;5026739;28;19963;-76
2022/03/30 08:43:54;;;;;;;;;;;;;;;10.20;56.26;99948.66;5027430;28;19958;-76
2022/03/30 08:46:20;;;;;;;;;;;;;;;10.24;56.78;99947.69;5027503;28;20362;-76
2022/03/30 08:48:45;;;;;;;;;;;;;;;10.33;56.93;99949.97;5028829;28;19921;-79
2022/03/30 08:51:11;;;;;;;;;;;;;;;10.25;57.20;99948.53;5023772;28;20012;-79
2022/03/30 08:53:37;;;;;;;;;;;;;;;10.41;55.95;99950.56;5023795;28;20027;-79
2022/03/30 08:56:02;;;;;;;;;;;;;;;10.42;57.23;99960.06;5023915;28;20024;-79
2022/03/30 08:58:31;;;;;;;;;;;;;;;10.19;54.93;99953.91;5023323;28;19932;-79
2022/03/30 09:01:06;;;;;;;;;;;;;;;10.48;54.87;99959.00;5027101;28;19921;-79
2022/03/30 09:03:32;;;;;;;;;;;;;;;10.20;55.38;99959.03;5022601;28;19932;-79
2022/03/30 09:05:58;;;;;;;;;;;;;;;10.25;54.83;99951.97;5031637;28;19925;-79
2022/03/30 09:08:25;;;;;;;;;;;;;;;10.29;54.10;99950.97;5025854;28;20024;-79
2022/03/30 09:10:53;;;;;;;;;;;;;;;10.28;53.44;99956.22;5035374;28;19925;-79
2022/03/30 09:13:18;;;;;;;;;;;;;;;10.50;52.28;99944.22;5030017;28;19921;-79
2022/03/30 09:15:45;;;;;;;;;;;;;;;10.21;54.08;99949.53;5026821;28;19921;-79
2022/03/30 09:18:12;;;;;;;;;;;;;;;10.31;52.41;99944.00;5030212;28;19932;-76
2022/03/30 09:20:42;;;;;;;;;;;;;;;10.36;52.97;99936.91;5029408;28;19929;-78
2022/03/30 09:23:10;;;;;;;;;;;;;;;10.36;53.42;99944.69;5031049;28;19921;-79
2022/03/30 09:25:35;;;;;;;;;;;;;;;10.39;52.28;99939.41;5032742;28;20730;-79
2022/03/30 09:28:01;;;;;;;;;;;;;;;10.43;51.97;99935.78;5028917;28;19925;-78
2022/03/30 09:30:28;;;;;;;;;;;;;;;10.49;52.27;99939.09;5031380;28;20413;-76
2022/03/30 09:32:55;;;;;;;;;;;;;;;10.40;52.75;99937.66;5034198;28;19921;-79
2022/03/30 09:35:24;;;;;;;;;;;;;;;10.43;51.85;99940.97;5032483;28;19972;-79
2022/03/30 09:38:09;;;;;;;;;;;;;;;10.50;49.20;99944.22;5035109;28;20324;-79
2022/03/30 09:40:55;;;;;;;;;;;;;;;10.54;51.15;99939.78;5023420;28;19921;-79
2022/03/30 09:43:22;;;;;;;;;;;;;;;10.67;49.10;99930.66;5026867;28;19925;-79
2022/03/30 09:45:49;;;;;;;;;;;;;;;10.56;48.54;99925.81;5034794;28;20030;-79
2022/03/30 09:48:17;;;;;;;;;;;;;;;10.57;51.05;99922.34;5031510;28;19921;-79
2022/03/30 09:50:48;;;;;;;;;;;;;;;10.62;52.37;99916.97;5027988;28;19917;-79
2022/03/30 09:53:15;;;;;;;;;;;;;;;10.56;47.80;99919.78;5029475;28;19925;-79
2022/03/30 09:55:56;;;;;;;;;;;;;;;10.65;45.35;99912.53;5027639;28;19964;-79
2022/03/30 09:58:22;;;;;;;;;;;;;;;10.84;44.72;99907.53;5026680;28;20009;-79
2022/03/30 10:01:03;;;;;;;;;;;;;;;10.76;47.14;99904.38;5031932;28;20004;-79
2022/03/30 10:03:43;;;;;;;;;;;;;;;10.77;46.31;99903.44;5040137;28;19921;-78
2022/03/30 10:06:11;;;;;;;;;;;;;;;10.70;46.23;99900.22;5026258;28;19928;-78
2022/03/30 10:08:38;;;;;;;;;;;;;;;10.76;45.73;99901.78;5038201;28;20036;-78
2022/03/30 10:11:04;;;;;;;;;;;;;;;10.81;47.71;99897.25;5039603;28;19979;-78
2022/03/30 10:13:29;;;;;;;;;;;;;;;10.73;47.36;99892.31;5031828;28;19933;-78
2022/03/30 10:15:54;;;;;;;;;;;;;;;10.66;49.93;99900.38;5030061;28;20029;-78
2022/03/30 10:18:20;;;;;;;;;;;;;;;10.70;48.50;99895.03;5023631;28;19928;-78
2022/03/30 10:20:48;;;;;;;;;;;;;;;10.82;45.72;99892.00;5026040;28;19917;-76
2022/03/30 10:23:33;;;;;;;;;;;;;;;10.75;46.76;99880.16;5032556;28;19917;-77
2022/03/30 10:26:06;;;;;;;;;;;;;;;10.72;46.77;99882.84;5035610;28;19940;-78
2022/03/30 10:28:51;;;;;;;;;;;;;;;10.78;47.36;99874.84;5030109;28;19921;-78
2022/03/30 10:31:20;;;;;;;;;;;;;;;10.79;46.82;99873.09;5029181;28;20338;-78
2022/03/30 10:33:45;;;;;;;;;;;;;;;10.70;46.58;99878.63;5038140;28;19917;-78
2022/03/30 10:36:21;;;;;;;;;;;;;;;10.92;44.57;99875.19;5028691;28;20004;-78
2022/03/30 10:39:06;;;;;;;;;;;;;;;11.04;44.57;99873.88;5023978;28;20329;-78
2022/03/30 10:41:51;;;;;;;;;;;;;;;10.91;43.87;99868.28;5047433;28;19944;-81
2022/03/30 10:44:34;;;;;;;;;;;;;;;11.10;44.22;99858.06;5035011;28;19921;-76
2022/03/30 10:47:09;;;;;;;;;;;;;;;10.95;44.58;99864.69;5018161;28;19982;-75
2022/03/30 10:49:42;;;;;;;;;;;;;;;11.05;45.03;99862.59;5035774;28;19920;-75
2022/03/30 10:52:26;;;;;;;;;;;;;;;11.12;44.42;99861.44;5028147;28;19939;-76
2022/03/30 10:55:11;;;;;;;;;;;;;;;11.20;44.29;99855.97;5027685;28;20008;-76
2022/03/30 10:57:53;;;;;;;;;;;;;;;11.22;44.31;99855.00;5022764;28;20016;-76
2022/03/30 11:00:23;;;;;;;;;;;;;;;11.30;45.02;99850.38;5023704;28;19921;-76
2022/03/30 11:02:48;;;;;;;;;;;;;;;11.27;42.45;99850.47;5021835;28;20285;-77
2022/03/30 11:05:15;;;;;;;;;;;;;;;11.33;43.36;99839.00;5021613;28;19917;-76
2022/03/30 11:07:41;;;;;;;;;;;;;;;11.22;42.11;99841.16;5033576;28;19974;-76
2022/03/30 11:10:25;;;;;;;;;;;;;;;11.21;40.15;99835.09;5024704;28;19928;-76
2022/03/30 11:12:59;;;;;;;;;;;;;;;11.19;40.75;99831.72;5029828;28;19944;-76
2022/03/30 11:15:24;;;;;;;;;;;;;;;10.98;41.93;99832.53;5027272;28;19928;-76
2022/03/30 11:17:50;;;;;;;;;;;;;;;11.13;41.33;99824.16;5025305;28;19979;-76
2022/03/30 11:20:16;;;;;;;;;;;;;;;11.22;40.80;99818.59;5022327;28;20362;-76
2022/03/30 11:22:44;;;;;;;;;;;;;;;11.33;40.88;99820.81;5022801;28;20523;-76
2022/03/30 11:25:14;;;;;;;;;;;;;;;11.29;40.29;99819.25;5024575;28;19930;-76
2022/03/30 11:27:44;;;;;;;;;;;;;;;11.24;39.96;99811.59;5022625;28;19922;-77
2022/03/30 11:30:14;;;;;;;;;;;;;;;11.24;40.68;99815.94;5044442;28;19933;-77
2022/03/30 11:32:41;;;;;;;;;;;;;;;11.23;40.17;99803.84;5025398;28;21277;-79
2022/03/30 11:35:10;;;;;;;;;;;;;;;11.32;42.72;99811.34;5029845;28;20021;-78
2022/03/30 11:37:45;;;;;;;;;;;;;;;11.27;42.14;99798.47;5029101;28;20551;-78
2022/03/30 11:40:15;;;;;;;;;;;;;;;11.15;41.36;99790.28;5025182;28;19993;-81
2022/03/30 11:42:42;;;;;;;;;;;;;;;11.21;43.45;99792.66;5025216;28;19933;-81
2022/03/30 11:45:21;;;;;;;;;;;;;;;11.26;40.62;99796.78;5028545;28;19929;-76
2022/03/30 11:47:52;;;;;;;;;;;;;;;11.34;41.05;99799.09;5032847;28;19983;-80
2022/03/30 11:50:31;;;;;;;;;;;;;;;11.30;41.60;99785.38;5043477;28;19921;-80
2022/03/30 11:53:07;;;;;;;;;;;;;;;11.31;41.81;99791.44;5027796;28;19975;-80
2022/03/30 11:55:35;;;;;;;;;;;;;;;11.34;42.08;99779.16;5028665;28;19929;-80
2022/03/30 11:58:01;;;;;;;;;;;;;;;11.40;40.50;99772.88;5026053;28;20012;-81
2022/03/30 12:00:27;;;;;;;;;;;;;;;11.59;40.84;99767.78;5024349;28;19956;-81
2022/03/30 12:03:00;;;;;;;;;;;;;;;11.49;39.87;99767.28;5028106;28;20465;-81
2022/03/30 12:05:25;;;;;;;;;;;;;;;11.45;41.10;99776.13;5023816;28;19996;-79
2022/03/30 12:07:57;;;;;;;;;;;;;;;11.46;41.03;99767.41;5024725;28;20062;-79
2022/03/30 12:10:27;;;;;;;;;;;;;;;11.46;40.54;99764.81;5027732;28;19963;-81
2022/03/30 12:12:53;;;;;;;;;;;;;;;11.50;39.35;99764.63;5023794;28;19929;-81
2022/03/30 12:15:19;;;;;;;;;;;;;;;11.48;39.25;99756.03;5028666;28;19921;-81
2022/03/30 12:17:52;;;;;;;;;;;;;;;11.54;38.42;99757.53;5024890;28;19924;-79
2022/03/30 12:20:22;;;;;;;;;;;;;;;11.64;38.69;99752.81;5022233;28;19978;-79
2022/03/30 12:22:53;;;;;;;;;;;;;;;11.56;38.97;99751.38;5027626;28;19929;-78
2022/03/30 12:25:18;;;;;;;;;;;;;;;11.49;39.36;99754.28;5030990;28;19922;-81
2022/03/30 12:27:44;;;;;;;;;;;;;;;11.50;38.61;99743.81;5032601;28;19999;-82
2022/03/30 12:30:09;;;;;;;;;;;;;;;11.63;41.33;99753.72;5027188;28;19929;-82
2022/03/30 12:32:35;;;;;;;;;;;;;;;11.65;39.81;99744.13;5028097;28;20716;-81
2022/03/30 12:35:11;;;;;;;;;;;;;;;11.73;41.20;99739.44;5024310;28;19921;-81
2022/03/30 12:37:36;;;;;;;;;;;;;;;11.72;39.68;99735.13;5019438;28;19929;-82
2022/03/30 12:40:12;;;;;;;;;;;;;;;11.72;39.51;99738.56;5030224;28;19921;-82
2022/03/30 12:42:38;;;;;;;;;;;;;;;11.84;39.99;99738.06;5028092;28;19925;-76
2022/03/30 12:45:08;;;;;;;;;;;;;;;11.87;39.05;99735.34;5030503;28;19927;-81
2022/03/30 12:47:36;;;;;;;;;;;;;;;11.74;37.63;99726.34;5029875;28;21328;-78
2022/03/30 12:50:13;;;;;;;;;;;;;;;11.75;38.87;99737.59;5029808;28;20023;-77
2022/03/30 12:52:44;;;;;;;;;;;;;;;11.66;38.29;99725.81;5027600;28;19925;-82